Search for airport 
image banner adimage banner ad
image banner ad

SVRU - Santa Rosa De Guanare

Located in Portuguesa, Venezuela

ICAO - SVRU, IATA -

Data provided by Airmate  

General information

Coordinates: N8°44'56" W69°43'20"
Elevation is 459 feet MSL.
 
Rated:
View ratings: [VIEW]


View others Airports in Guarico

Operational data

Open for public use
Current time UTC:
Current local time:
Weather at : SVGU - Guanare Ntl ( 31 km )
METAR: SVGU 011602Z AUTO 09008KT NCD 29/22 Q1017
View NOTAMs / SUP AIP / TFR affecting this airport [VIEW]
Communications frequencies: [VIEW]

Runways:

RWY identifierQFULength (ft)Width (ft)SurfaceLDA (ft)
0900
2700

Airport contact information

Address: Portuguesa Venezuela

Satellite view of SVRU